sensor_id;sensor_type;location;lat;lon;timestamp;P1;durP1;ratioP1;P2;durP2;ratioP2
73550;SDS011;61816;53.582;10.096;2023-07-22T00:02:10;21.38;;;10.30;;
73550;SDS011;61816;53.582;10.096;2023-07-22T00:04:36;16.52;;;9.50;;
73550;SDS011;61816;53.582;10.096;2023-07-22T00:07:01;18.38;;;10.05;;
73550;SDS011;61816;53.582;10.096;2023-07-22T00:09:26;20.65;;;10.60;;
73550;SDS011;61816;53.582;10.096;2023-07-22T00:11:52;22.73;;;9.85;;
73550;SDS011;61816;53.582;10.096;2023-07-22T00:14:17;22.15;;;9.73;;
73550;SDS011;61816;53.582;10.096;2023-07-22T00:16:42;19.90;;;11.43;;
73550;SDS011;61816;53.582;10.096;2023-07-22T00:19:08;24.73;;;10.65;;
73550;SDS011;61816;53.582;10.096;2023-07-22T00:21:33;17.60;;;10.48;;
73550;SDS011;61816;53.582;10.096;2023-07-22T00:23:59;18.65;;;10.48;;
73550;SDS011;61816;53.582;10.096;2023-07-22T00:26:25;21.83;;;10.25;;
73550;SDS011;61816;53.582;10.096;2023-07-22T00:28:51;24.92;;;10.80;;
73550;SDS011;61816;53.582;10.096;2023-07-22T00:31:16;23.55;;;10.15;;
73550;SDS011;61816;53.582;10.096;2023-07-22T00:33:42;18.00;;;10.48;;
73550;SDS011;61816;53.582;10.096;2023-07-22T00:36:07;21.50;;;11.02;;
73550;SDS011;61816;53.582;10.096;2023-07-22T00:38:33;24.23;;;11.20;;
73550;SDS011;61816;53.582;10.096;2023-07-22T00:40:58;22.98;;;10.88;;
73550;SDS011;61816;53.582;10.096;2023-07-22T00:43:23;18.83;;;10.73;;
73550;SDS011;61816;53.582;10.096;2023-07-22T00:45:51;17.88;;;10.10;;
73550;SDS011;61816;53.582;10.096;2023-07-22T00:48:16;18.38;;;11.00;;
73550;SDS011;61816;53.582;10.096;2023-07-22T00:50:42;22.15;;;10.95;;
73550;SDS011;61816;53.582;10.096;2023-07-22T00:53:08;23.10;;;12.02;;
73550;SDS011;61816;53.582;10.096;2023-07-22T00:55:34;21.52;;;11.07;;
73550;SDS011;61816;53.582;10.096;2023-07-22T00:58:00;29.10;;;12.13;;
73550;SDS011;61816;53.582;10.096;2023-07-22T01:00:26;22.13;;;11.82;;
73550;SDS011;61816;53.582;10.096;2023-07-22T01:02:51;27.52;;;12.20;;
73550;SDS011;61816;53.582;10.096;2023-07-22T01:05:17;24.05;;;10.82;;
73550;SDS011;61816;53.582;10.096;2023-07-22T01:07:43;28.25;;;12.70;;
73550;SDS011;61816;53.582;10.096;2023-07-22T01:10:09;23.08;;;11.40;;
73550;SDS011;61816;53.582;10.096;2023-07-22T01:12:34;28.38;;;12.98;;
73550;SDS011;61816;53.582;10.096;2023-07-22T01:15:00;24.33;;;12.10;;
73550;SDS011;61816;53.582;10.096;2023-07-22T01:17:28;23.45;;;11.55;;
73550;SDS011;61816;53.582;10.096;2023-07-22T01:19:54;24.48;;;12.68;;
73550;SDS011;61816;53.582;10.096;2023-07-22T01:22:20;25.88;;;12.27;;
73550;SDS011;61816;53.582;10.096;2023-07-22T01:24:46;33.08;;;12.25;;
73550;SDS011;61816;53.582;10.096;2023-07-22T01:27:15;23.83;;;11.40;;
73550;SDS011;61816;53.582;10.096;2023-07-22T01:29:40;27.00;;;10.98;;
73550;SDS011;61816;53.582;10.096;2023-07-22T01:32:06;21.42;;;11.20;;
73550;SDS011;61816;53.582;10.096;2023-07-22T01:34:31;27.08;;;10.98;;
73550;SDS011;61816;53.582;10.096;2023-07-22T01:36:56;20.88;;;10.25;;
73550;SDS011;61816;53.582;10.096;2023-07-22T01:39:22;24.02;;;10.85;;
73550;SDS011;61816;53.582;10.096;2023-07-22T01:41:48;23.85;;;9.23;;
73550;SDS011;61816;53.582;10.096;2023-07-22T01:44:13;28.75;;;12.02;;
73550;SDS011;61816;53.582;10.096;2023-07-22T01:46:39;25.80;;;11.30;;
73550;SDS011;61816;53.582;10.096;2023-07-22T01:49:06;22.73;;;10.52;;
73550;SDS011;61816;53.582;10.096;2023-07-22T01:51:35;28.42;;;11.60;;
73550;SDS011;61816;53.582;10.096;2023-07-22T01:54:02;28.55;;;11.20;;
73550;SDS011;61816;53.582;10.096;2023-07-22T01:56:28;19.95;;;10.68;;
73550;SDS011;61816;53.582;10.096;2023-07-22T01:58:54;26.40;;;10.52;;
73550;SDS011;61816;53.582;10.096;2023-07-22T02:01:19;32.97;;;11.70;;
73550;SDS011;61816;53.582;10.096;2023-07-22T02:03:44;25.83;;;10.23;;
73550;SDS011;61816;53.582;10.096;2023-07-22T02:06:11;27.67;;;11.30;;
73550;SDS011;61816;53.582;10.096;2023-07-22T02:08:36;22.27;;;9.95;;
73550;SDS011;61816;53.582;10.096;2023-07-22T02:11:02;31.92;;;10.77;;
73550;SDS011;61816;53.582;10.096;2023-07-22T02:13:29;24.80;;;10.23;;
73550;SDS011;61816;53.582;10.096;2023-07-22T02:15:55;19.55;;;10.10;;
73550;SDS011;61816;53.582;10.096;2023-07-22T02:18:21;28.17;;;10.40;;
73550;SDS011;61816;53.582;10.096;2023-07-22T02:20:46;24.35;;;10.32;;
73550;SDS011;61816;53.582;10.096;2023-07-22T02:23:12;27.13;;;10.32;;
73550;SDS011;61816;53.582;10.096;2023-07-22T02:25:37;22.85;;;11.35;;
73550;SDS011;61816;53.582;10.096;2023-07-22T02:28:03;32.75;;;11.18;;
73550;SDS011;61816;53.582;10.096;2023-07-22T02:30:28;22.77;;;10.75;;
73550;SDS011;61816;53.582;10.096;2023-07-22T02:32:54;28.92;;;10.38;;
73550;SDS011;61816;53.582;10.096;2023-07-22T02:35:19;25.00;;;10.52;;
73550;SDS011;61816;53.582;10.096;2023-07-22T02:37:44;32.75;;;10.75;;
73550;SDS011;61816;53.582;10.096;2023-07-22T02:40:10;23.90;;;10.88;;
73550;SDS011;61816;53.582;10.096;2023-07-22T02:42:39;27.40;;;11.95;;
73550;SDS011;61816;53.582;10.096;2023-07-22T02:45:04;25.40;;;12.20;;
73550;SDS011;61816;53.582;10.096;2023-07-22T02:47:32;27.63;;;11.45;;
73550;SDS011;61816;53.582;10.096;2023-07-22T02:49:57;27.90;;;10.98;;
73550;SDS011;61816;53.582;10.096;2023-07-22T02:52:23;33.05;;;12.80;;
73550;SDS011;61816;53.582;10.096;2023-07-22T02:57:36;30.35;;;12.07;;
73550;SDS011;61816;53.582;10.096;2023-07-22T03:00:02;26.98;;;12.02;;
73550;SDS011;61816;53.582;10.096;2023-07-22T03:02:32;27.77;;;11.17;;
73550;SDS011;61816;53.582;10.096;2023-07-22T03:04:59;39.55;;;14.02;;
73550;SDS011;61816;53.582;10.096;2023-07-22T03:07:24;28.77;;;12.63;;
73550;SDS011;61816;53.582;10.096;2023-07-22T03:09:51;26.05;;;11.77;;
73550;SDS011;61816;53.582;10.096;2023-07-22T03:12:17;25.60;;;12.00;;
73550;SDS011;61816;53.582;10.096;2023-07-22T03:14:42;32.33;;;12.43;;
73550;SDS011;61816;53.582;10.096;2023-07-22T03:17:08;30.35;;;12.40;;
73550;SDS011;61816;53.582;10.096;2023-07-22T03:19:33;22.52;;;11.93;;
73550;SDS011;61816;53.582;10.096;2023-07-22T03:21:59;33.03;;;12.30;;
73550;SDS011;61816;53.582;10.096;2023-07-22T03:24:24;28.35;;;11.77;;
73550;SDS011;61816;53.582;10.096;2023-07-22T03:26:50;25.33;;;12.68;;
73550;SDS011;61816;53.582;10.096;2023-07-22T03:29:15;31.38;;;11.75;;
73550;SDS011;61816;53.582;10.096;2023-07-22T03:31:41;29.60;;;12.55;;
73550;SDS011;61816;53.582;10.096;2023-07-22T03:34:06;28.98;;;12.10;;
73550;SDS011;61816;53.582;10.096;2023-07-22T03:36:32;28.42;;;12.63;;
73550;SDS011;61816;53.582;10.096;2023-07-22T03:39:01;26.15;;;13.43;;
73550;SDS011;61816;53.582;10.096;2023-07-22T03:41:26;33.95;;;12.40;;
73550;SDS011;61816;53.582;10.096;2023-07-22T03:43:51;31.77;;;13.40;;
73550;SDS011;61816;53.582;10.096;2023-07-22T03:46:17;31.90;;;12.35;;
73550;SDS011;61816;53.582;10.096;2023-07-22T03:48:42;28.25;;;12.13;;
73550;SDS011;61816;53.582;10.096;2023-07-22T03:51:08;28.23;;;14.00;;
73550;SDS011;61816;53.582;10.096;2023-07-22T03:53:33;23.58;;;12.70;;
73550;SDS011;61816;53.582;10.096;2023-07-22T03:55:59;32.88;;;13.00;;
73550;SDS011;61816;53.582;10.096;2023-07-22T03:58:24;34.63;;;13.55;;
73550;SDS011;61816;53.582;10.096;2023-07-22T04:00:49;30.92;;;13.98;;
73550;SDS011;61816;53.582;10.096;2023-07-22T04:03:15;23.30;;;11.75;;
73550;SDS011;61816;53.582;10.096;2023-07-22T04:05:40;35.13;;;13.48;;
73550;SDS011;61816;53.582;10.096;2023-07-22T04:08:06;28.83;;;12.85;;
73550;SDS011;61816;53.582;10.096;2023-07-22T04:10:31;34.22;;;12.10;;
73550;SDS011;61816;53.582;10.096;2023-07-22T04:12:57;29.98;;;12.75;;
73550;SDS011;61816;53.582;10.096;2023-07-22T04:15:23;28.17;;;11.35;;
73550;SDS011;61816;53.582;10.096;2023-07-22T04:17:48;23.60;;;11.82;;
73550;SDS011;61816;53.582;10.096;2023-07-22T04:20:14;27.88;;;12.25;;
73550;SDS011;61816;53.582;10.096;2023-07-22T04:22:39;27.35;;;11.98;;
73550;SDS011;61816;53.582;10.096;2023-07-22T04:25:05;31.50;;;11.77;;
73550;SDS011;61816;53.582;10.096;2023-07-22T04:27:31;29.65;;;11.52;;
73550;SDS011;61816;53.582;10.096;2023-07-22T04:29:56;25.42;;;12.38;;
73550;SDS011;61816;53.582;10.096;2023-07-22T04:32:21;32.60;;;12.18;;
73550;SDS011;61816;53.582;10.096;2023-07-22T04:34:47;30.20;;;12.05;;
73550;SDS011;61816;53.582;10.096;2023-07-22T04:37:12;40.13;;;12.77;;
73550;SDS011;61816;53.582;10.096;2023-07-22T04:39:38;32.85;;;13.00;;
73550;SDS011;61816;53.582;10.096;2023-07-22T04:42:03;21.55;;;10.57;;
73550;SDS011;61816;53.582;10.096;2023-07-22T04:44:29;23.63;;;11.55;;
73550;SDS011;61816;53.582;10.096;2023-07-22T04:46:54;26.35;;;10.77;;
73550;SDS011;61816;53.582;10.096;2023-07-22T04:49:20;30.92;;;11.43;;
73550;SDS011;61816;53.582;10.096;2023-07-22T04:51:46;26.88;;;10.50;;
73550;SDS011;61816;53.582;10.096;2023-07-22T04:54:12;26.80;;;10.35;;
73550;SDS011;61816;53.582;10.096;2023-07-22T04:56:38;35.05;;;12.27;;
73550;SDS011;61816;53.582;10.096;2023-07-22T04:59:04;24.33;;;10.82;;
73550;SDS011;61816;53.582;10.096;2023-07-22T05:01:29;24.50;;;11.43;;
73550;SDS011;61816;53.582;10.096;2023-07-22T05:03:55;23.10;;;11.30;;
73550;SDS011;61816;53.582;10.096;2023-07-22T05:06:20;24.83;;;12.38;;
73550;SDS011;61816;53.582;10.096;2023-07-22T05:08:46;29.95;;;12.18;;
73550;SDS011;61816;53.582;10.096;2023-07-22T05:11:11;29.15;;;12.10;;
73550;SDS011;61816;53.582;10.096;2023-07-22T05:13:37;35.78;;;11.95;;
73550;SDS011;61816;53.582;10.096;2023-07-22T05:16:02;28.05;;;11.77;;
73550;SDS011;61816;53.582;10.096;2023-07-22T05:18:28;24.10;;;10.55;;
73550;SDS011;61816;53.582;10.096;2023-07-22T05:20:53;25.42;;;10.80;;
73550;SDS011;61816;53.582;10.096;2023-07-22T05:23:19;24.48;;;10.93;;
73550;SDS011;61816;53.582;10.096;2023-07-22T05:25:50;22.35;;;11.15;;
73550;SDS011;61816;53.582;10.096;2023-07-22T05:28:16;32.83;;;10.57;;
73550;SDS011;61816;53.582;10.096;2023-07-22T05:30:42;27.95;;;11.20;;
73550;SDS011;61816;53.582;10.096;2023-07-22T05:33:07;17.65;;;8.75;;
73550;SDS011;61816;53.582;10.096;2023-07-22T05:35:32;20.95;;;9.25;;
73550;SDS011;61816;53.582;10.096;2023-07-22T05:37:57;18.85;;;9.57;;
73550;SDS011;61816;53.582;10.096;2023-07-22T05:40:23;20.42;;;8.90;;
73550;SDS011;61816;53.582;10.096;2023-07-22T05:42:48;23.63;;;9.32;;
73550;SDS011;61816;53.582;10.096;2023-07-22T05:45:14;30.85;;;9.20;;
73550;SDS011;61816;53.582;10.096;2023-07-22T05:47:41;13.88;;;8.02;;
73550;SDS011;61816;53.582;10.096;2023-07-22T05:50:07;18.73;;;9.10;;
73550;SDS011;61816;53.582;10.096;2023-07-22T05:52:33;17.25;;;8.77;;
73550;SDS011;61816;53.582;10.096;2023-07-22T05:54:59;20.58;;;8.57;;
73550;SDS011;61816;53.582;10.096;2023-07-22T05:57:24;19.85;;;9.32;;
73550;SDS011;61816;53.582;10.096;2023-07-22T05:59:49;19.40;;;7.80;;
73550;SDS011;61816;53.582;10.096;2023-07-22T06:02:16;23.75;;;8.32;;
73550;SDS011;61816;53.582;10.096;2023-07-22T06:04:43;20.17;;;7.72;;
73550;SDS011;61816;53.582;10.096;2023-07-22T06:07:08;20.20;;;7.80;;
73550;SDS011;61816;53.582;10.096;2023-07-22T06:09:34;13.65;;;7.35;;
73550;SDS011;61816;53.582;10.096;2023-07-22T06:12:00;17.38;;;7.65;;
73550;SDS011;61816;53.582;10.096;2023-07-22T06:14:25;19.90;;;7.35;;
73550;SDS011;61816;53.582;10.096;2023-07-22T06:16:51;25.42;;;8.20;;
73550;SDS011;61816;53.582;10.096;2023-07-22T06:19:16;16.60;;;7.03;;
73550;SDS011;61816;53.582;10.096;2023-07-22T06:21:41;26.17;;;7.50;;
73550;SDS011;61816;53.582;10.096;2023-07-22T06:24:07;17.52;;;6.75;;
73550;SDS011;61816;53.582;10.096;2023-07-22T06:26:32;16.63;;;6.97;;
73550;SDS011;61816;53.582;10.096;2023-07-22T06:28:58;20.60;;;6.70;;
73550;SDS011;61816;53.582;10.096;2023-07-22T06:31:23;15.07;;;5.60;;
73550;SDS011;61816;53.582;10.096;2023-07-22T06:33:48;13.57;;;5.72;;
73550;SDS011;61816;53.582;10.096;2023-07-22T06:36:14;13.30;;;5.07;;
73550;SDS011;61816;53.582;10.096;2023-07-22T06:38:41;13.65;;;5.07;;
73550;SDS011;61816;53.582;10.096;2023-07-22T06:41:07;11.50;;;4.80;;
73550;SDS011;61816;53.582;10.096;2023-07-22T06:43:32;9.68;;;4.70;;
73550;SDS011;61816;53.582;10.096;2023-07-22T06:45:58;8.95;;;4.22;;
73550;SDS011;61816;53.582;10.096;2023-07-22T06:48:23;8.75;;;4.28;;
73550;SDS011;61816;53.582;10.096;2023-07-22T06:50:49;17.58;;;4.95;;
73550;SDS011;61816;53.582;10.096;2023-07-22T06:53:14;9.35;;;4.13;;
73550;SDS011;61816;53.582;10.096;2023-07-22T06:55:47;10.43;;;3.38;;
73550;SDS011;61816;53.582;10.096;2023-07-22T06:58:13;11.10;;;3.78;;
73550;SDS011;61816;53.582;10.096;2023-07-22T07:00:38;13.25;;;4.05;;
73550;SDS011;61816;53.582;10.096;2023-07-22T07:03:04;14.48;;;3.80;;
73550;SDS011;61816;53.582;10.096;2023-07-22T07:05:29;8.02;;;3.63;;
73550;SDS011;61816;53.582;10.096;2023-07-22T07:07:54;8.32;;;3.47;;
73550;SDS011;61816;53.582;10.096;2023-07-22T07:10:20;7.25;;;3.65;;
73550;SDS011;61816;53.582;10.096;2023-07-22T07:12:45;4.47;;;2.30;;
73550;SDS011;61816;53.582;10.096;2023-07-22T07:15:11;10.13;;;3.10;;
73550;SDS011;61816;53.582;10.096;2023-07-22T07:17:36;10.05;;;2.83;;
73550;SDS011;61816;53.582;10.096;2023-07-22T07:20:01;6.63;;;2.25;;
73550;SDS011;61816;53.582;10.096;2023-07-22T07:22:27;8.20;;;3.33;;
73550;SDS011;61816;53.582;10.096;2023-07-22T07:24:52;7.30;;;3.17;;
73550;SDS011;61816;53.582;10.096;2023-07-22T07:27:18;7.07;;;3.35;;
73550;SDS011;61816;53.582;10.096;2023-07-22T07:29:43;12.32;;;3.38;;
73550;SDS011;61816;53.582;10.096;2023-07-22T07:32:08;12.20;;;2.45;;
73550;SDS011;61816;53.582;10.096;2023-07-22T07:34:34;6.85;;;2.35;;
73550;SDS011;61816;53.582;10.096;2023-07-22T07:36:59;5.32;;;2.08;;
73550;SDS011;61816;53.582;10.096;2023-07-22T07:39:24;6.07;;;2.10;;
73550;SDS011;61816;53.582;10.096;2023-07-22T07:41:50;7.53;;;2.40;;
73550;SDS011;61816;53.582;10.096;2023-07-22T07:44:16;8.40;;;2.30;;
73550;SDS011;61816;53.582;10.096;2023-07-22T07:46:41;5.63;;;2.53;;
73550;SDS011;61816;53.582;10.096;2023-07-22T07:49:06;11.32;;;2.50;;
73550;SDS011;61816;53.582;10.096;2023-07-22T07:51:32;6.93;;;3.22;;
73550;SDS011;61816;53.582;10.096;2023-07-22T07:53:58;8.88;;;2.95;;
73550;SDS011;61816;53.582;10.096;2023-07-22T07:56:24;3.90;;;2.72;;
73550;SDS011;61816;53.582;10.096;2023-07-22T07:58:50;8.13;;;3.80;;
73550;SDS011;61816;53.582;10.096;2023-07-22T08:01:17;11.80;;;2.60;;
73550;SDS011;61816;53.582;10.096;2023-07-22T08:03:43;6.68;;;2.80;;
73550;SDS011;61816;53.582;10.096;2023-07-22T08:06:09;6.15;;;2.78;;
73550;SDS011;61816;53.582;10.096;2023-07-22T08:08:36;8.68;;;2.53;;
73550;SDS011;61816;53.582;10.096;2023-07-22T08:13:29;9.05;;;2.35;;
73550;SDS011;61816;53.582;10.096;2023-07-22T08:16:06;4.03;;;2.00;;
73550;SDS011;61816;53.582;10.096;2023-07-22T08:18:33;5.95;;;1.90;;
73550;SDS011;61816;53.582;10.096;2023-07-22T08:21:00;4.03;;;2.28;;
73550;SDS011;61816;53.582;10.096;2023-07-22T08:23:27;6.53;;;2.00;;
73550;SDS011;61816;53.582;10.096;2023-07-22T08:25:53;3.78;;;1.90;;
73550;SDS011;61816;53.582;10.096;2023-07-22T08:28:18;4.78;;;1.80;;
73550;SDS011;61816;53.582;10.096;2023-07-22T08:30:43;7.68;;;2.20;;
73550;SDS011;61816;53.582;10.096;2023-07-22T08:33:10;12.32;;;2.85;;
73550;SDS011;61816;53.582;10.096;2023-07-22T08:35:38;18.52;;;3.50;;
73550;SDS011;61816;53.582;10.096;2023-07-22T08:38:04;11.57;;;3.15;;
73550;SDS011;61816;53.582;10.096;2023-07-22T08:40:33;4.47;;;2.30;;
73550;SDS011;61816;53.582;10.096;2023-07-22T08:43:04;4.70;;;2.03;;
73550;SDS011;61816;53.582;10.096;2023-07-22T08:45:33;4.13;;;1.90;;
73550;SDS011;61816;53.582;10.096;2023-07-22T08:48:02;4.32;;;2.10;;
73550;SDS011;61816;53.582;10.096;2023-07-22T08:53:04;3.72;;;1.40;;
73550;SDS011;61816;53.582;10.096;2023-07-22T08:55:30;3.15;;;1.30;;
73550;SDS011;61816;53.582;10.096;2023-07-22T08:57:56;3.97;;;1.23;;
73550;SDS011;61816;53.582;10.096;2023-07-22T09:00:22;3.25;;;1.67;;
73550;SDS011;61816;53.582;10.096;2023-07-22T09:02:48;1.98;;;1.25;;
73550;SDS011;61816;53.582;10.096;2023-07-22T09:05:13;4.28;;;1.50;;
73550;SDS011;61816;53.582;10.096;2023-07-22T09:07:39;5.75;;;1.50;;
73550;SDS011;61816;53.582;10.096;2023-07-22T09:10:06;4.72;;;1.52;;
73550;SDS011;61816;53.582;10.096;2023-07-22T09:12:34;5.63;;;1.60;;
73550;SDS011;61816;53.582;10.096;2023-07-22T09:15:06;5.70;;;1.40;;
73550;SDS011;61816;53.582;10.096;2023-07-22T09:17:34;6.25;;;1.50;;
73550;SDS011;61816;53.582;10.096;2023-07-22T09:20:01;3.95;;;1.30;;
73550;SDS011;61816;53.582;10.096;2023-07-22T09:22:28;3.10;;;1.40;;
73550;SDS011;61816;53.582;10.096;2023-07-22T09:24:57;6.60;;;1.33;;
73550;SDS011;61816;53.582;10.096;2023-07-22T09:27:41;7.05;;;1.17;;
73550;SDS011;61816;53.582;10.096;2023-07-22T09:30:29;2.85;;;1.52;;
73550;SDS011;61816;53.582;10.096;2023-07-22T09:33:01;3.53;;;1.63;;
73550;SDS011;61816;53.582;10.096;2023-07-22T09:35:31;3.17;;;1.30;;
73550;SDS011;61816;53.582;10.096;2023-07-22T09:38:10;9.98;;;1.73;;
73550;SDS011;61816;53.582;10.096;2023-07-22T09:40:35;3.88;;;1.95;;
73550;SDS011;61816;53.582;10.096;2023-07-22T09:43:01;3.40;;;1.55;;
73550;SDS011;61816;53.582;10.096;2023-07-22T09:45:28;5.38;;;1.70;;
73550;SDS011;61816;53.582;10.096;2023-07-22T09:47:55;4.45;;;1.52;;
73550;SDS011;61816;53.582;10.096;2023-07-22T09:50:22;6.25;;;1.50;;
73550;SDS011;61816;53.582;10.096;2023-07-22T09:52:52;5.65;;;1.77;;
73550;SDS011;61816;53.582;10.096;2023-07-22T09:55:23;4.03;;;1.63;;
73550;SDS011;61816;53.582;10.096;2023-07-22T09:57:51;7.65;;;1.65;;
73550;SDS011;61816;53.582;10.096;2023-07-22T10:00:19;4.20;;;1.40;;
73550;SDS011;61816;53.582;10.096;2023-07-22T10:02:46;4.72;;;1.70;;
73550;SDS011;61816;53.582;10.096;2023-07-22T10:05:16;4.45;;;1.30;;
73550;SDS011;61816;53.582;10.096;2023-07-22T10:07:43;5.25;;;1.67;;
73550;SDS011;61816;53.582;10.096;2023-07-22T10:10:11;5.18;;;1.75;;
73550;SDS011;61816;53.582;10.096;2023-07-22T10:12:39;4.47;;;1.38;;
73550;SDS011;61816;53.582;10.096;2023-07-22T10:15:06;8.35;;;2.72;;
73550;SDS011;61816;53.582;10.096;2023-07-22T10:17:32;8.00;;;2.17;;
73550;SDS011;61816;53.582;10.096;2023-07-22T10:19:59;3.88;;;1.83;;
73550;SDS011;61816;53.582;10.096;2023-07-22T10:22:24;4.95;;;1.77;;
73550;SDS011;61816;53.582;10.096;2023-07-22T10:24:51;5.72;;;1.80;;
73550;SDS011;61816;53.582;10.096;2023-07-22T10:27:17;7.13;;;1.83;;
73550;SDS011;61816;53.582;10.096;2023-07-22T10:29:43;2.97;;;1.48;;
73550;SDS011;61816;53.582;10.096;2023-07-22T10:32:11;3.88;;;1.98;;
73550;SDS011;61816;53.582;10.096;2023-07-22T10:34:36;6.57;;;2.00;;
73550;SDS011;61816;53.582;10.096;2023-07-22T10:37:02;15.55;;;2.25;;
73550;SDS011;61816;53.582;10.096;2023-07-22T10:39:29;4.18;;;1.80;;
73550;SDS011;61816;53.582;10.096;2023-07-22T10:42:04;3.83;;;1.50;;
73550;SDS011;61816;53.582;10.096;2023-07-22T10:44:31;4.03;;;1.73;;
73550;SDS011;61816;53.582;10.096;2023-07-22T10:46:58;4.28;;;1.77;;
73550;SDS011;61816;53.582;10.096;2023-07-22T10:49:24;3.92;;;2.33;;
73550;SDS011;61816;53.582;10.096;2023-07-22T10:52:07;15.90;;;2.10;;
73550;SDS011;61816;53.582;10.096;2023-07-22T10:54:33;5.50;;;2.45;;
73550;SDS011;61816;53.582;10.096;2023-07-22T10:57:43;7.07;;;2.10;;
73550;SDS011;61816;53.582;10.096;2023-07-22T10:59:50;6.65;;;2.17;;
73550;SDS011;61816;53.582;10.096;2023-07-22T11:02:23;4.03;;;1.90;;
73550;SDS011;61816;53.582;10.096;2023-07-22T11:04:52;5.57;;;2.03;;
73550;SDS011;61816;53.582;10.096;2023-07-22T11:10:13;4.83;;;1.97;;
73550;SDS011;61816;53.582;10.096;2023-07-22T11:12:42;8.15;;;2.33;;
73550;SDS011;61816;53.582;10.096;2023-07-22T11:15:09;4.38;;;2.05;;
73550;SDS011;61816;53.582;10.096;2023-07-22T11:17:34;4.85;;;2.10;;
73550;SDS011;61816;53.582;10.096;2023-07-22T11:20:00;7.28;;;2.92;;
73550;SDS011;61816;53.582;10.096;2023-07-22T11:22:27;3.65;;;2.40;;
73550;SDS011;61816;53.582;10.096;2023-07-22T11:24:54;4.68;;;2.60;;
73550;SDS011;61816;53.582;10.096;2023-07-22T11:27:20;5.45;;;2.83;;
73550;SDS011;61816;53.582;10.096;2023-07-22T11:29:47;7.63;;;2.10;;
73550;SDS011;61816;53.582;10.096;2023-07-22T11:32:19;6.28;;;2.80;;
73550;SDS011;61816;53.582;10.096;2023-07-22T11:34:47;6.43;;;3.45;;
73550;SDS011;61816;53.582;10.096;2023-07-22T11:37:13;5.22;;;3.15;;
73550;SDS011;61816;53.582;10.096;2023-07-22T11:39:39;4.72;;;3.25;;
73550;SDS011;61816;53.582;10.096;2023-07-22T11:42:06;6.90;;;4.10;;
73550;SDS011;61816;53.582;10.096;2023-07-22T11:44:32;6.03;;;3.67;;
73550;SDS011;61816;53.582;10.096;2023-07-22T11:47:05;5.43;;;3.83;;
73550;SDS011;61816;53.582;10.096;2023-07-22T11:49:46;5.53;;;3.40;;
73550;SDS011;61816;53.582;10.096;2023-07-22T11:52:16;6.95;;;4.05;;
73550;SDS011;61816;53.582;10.096;2023-07-22T11:54:43;9.85;;;3.80;;
73550;SDS011;61816;53.582;10.096;2023-07-22T11:59:42;8.43;;;3.72;;
73550;SDS011;61816;53.582;10.096;2023-07-22T12:02:19;6.43;;;3.75;;
73550;SDS011;61816;53.582;10.096;2023-07-22T12:04:53;9.88;;;3.95;;
73550;SDS011;61816;53.582;10.096;2023-07-22T12:07:25;5.32;;;3.20;;
73550;SDS011;61816;53.582;10.096;2023-07-22T12:09:55;7.10;;;3.50;;
73550;SDS011;61816;53.582;10.096;2023-07-22T12:12:34;6.80;;;3.83;;
73550;SDS011;61816;53.582;10.096;2023-07-22T12:15:08;8.38;;;3.95;;
73550;SDS011;61816;53.582;10.096;2023-07-22T12:20:24;6.85;;;3.95;;
73550;SDS011;61816;53.582;10.096;2023-07-22T12:22:51;6.32;;;4.30;;
73550;SDS011;61816;53.582;10.096;2023-07-22T12:25:16;9.07;;;4.20;;
73550;SDS011;61816;53.582;10.096;2023-07-22T12:27:43;7.68;;;4.03;;
73550;SDS011;61816;53.582;10.096;2023-07-22T12:30:09;7.47;;;4.32;;
73550;SDS011;61816;53.582;10.096;2023-07-22T12:32:34;13.70;;;5.03;;
73550;SDS011;61816;53.582;10.096;2023-07-22T12:35:00;7.40;;;4.40;;
73550;SDS011;61816;53.582;10.096;2023-07-22T12:37:25;6.72;;;4.97;;
73550;SDS011;61816;53.582;10.096;2023-07-22T12:39:51;10.18;;;4.97;;
73550;SDS011;61816;53.582;10.096;2023-07-22T12:42:16;11.40;;;5.10;;
73550;SDS011;61816;53.582;10.096;2023-07-22T12:44:42;8.25;;;4.40;;
73550;SDS011;61816;53.582;10.096;2023-07-22T12:47:07;8.25;;;4.90;;
73550;SDS011;61816;53.582;10.096;2023-07-22T12:49:33;8.45;;;5.35;;
73550;SDS011;61816;53.582;10.096;2023-07-22T12:51:59;8.43;;;5.55;;
73550;SDS011;61816;53.582;10.096;2023-07-22T12:54:29;9.02;;;4.95;;
73550;SDS011;61816;53.582;10.096;2023-07-22T12:56:55;8.13;;;5.97;;
73550;SDS011;61816;53.582;10.096;2023-07-22T12:59:21;9.95;;;5.60;;
73550;SDS011;61816;53.582;10.096;2023-07-22T13:01:47;8.73;;;5.70;;
73550;SDS011;61816;53.582;10.096;2023-07-22T13:04:12;11.43;;;6.43;;
73550;SDS011;61816;53.582;10.096;2023-07-22T13:06:38;11.02;;;6.32;;
73550;SDS011;61816;53.582;10.096;2023-07-22T13:09:03;14.50;;;6.60;;
73550;SDS011;61816;53.582;10.096;2023-07-22T13:11:29;16.02;;;6.32;;
73550;SDS011;61816;53.582;10.096;2023-07-22T13:13:54;16.15;;;6.43;;
73550;SDS011;61816;53.582;10.096;2023-07-22T13:16:19;10.82;;;5.72;;
73550;SDS011;61816;53.582;10.096;2023-07-22T13:18:45;9.02;;;6.15;;
73550;SDS011;61816;53.582;10.096;2023-07-22T13:21:10;13.57;;;7.43;;
73550;SDS011;61816;53.582;10.096;2023-07-22T13:23:35;12.18;;;6.28;;
73550;SDS011;61816;53.582;10.096;2023-07-22T13:26:01;12.15;;;7.10;;
73550;SDS011;61816;53.582;10.096;2023-07-22T13:28:26;10.90;;;6.88;;
73550;SDS011;61816;53.582;10.096;2023-07-22T13:30:51;13.48;;;7.00;;
73550;SDS011;61816;53.582;10.096;2023-07-22T13:33:17;11.65;;;7.03;;
73550;SDS011;61816;53.582;10.096;2023-07-22T13:35:43;14.25;;;7.20;;
73550;SDS011;61816;53.582;10.096;2023-07-22T13:38:09;14.55;;;7.28;;
73550;SDS011;61816;53.582;10.096;2023-07-22T13:40:34;19.85;;;8.35;;
73550;SDS011;61816;53.582;10.096;2023-07-22T13:43:00;17.27;;;8.25;;
73550;SDS011;61816;53.582;10.096;2023-07-22T13:45:26;17.40;;;8.35;;
73550;SDS011;61816;53.582;10.096;2023-07-22T13:47:51;17.38;;;9.18;;
73550;SDS011;61816;53.582;10.096;2023-07-22T13:50:17;22.02;;;10.02;;
73550;SDS011;61816;53.582;10.096;2023-07-22T13:52:42;17.45;;;9.10;;
73550;SDS011;61816;53.582;10.096;2023-07-22T13:55:08;19.73;;;9.68;;
73550;SDS011;61816;53.582;10.096;2023-07-22T13:57:34;20.83;;;10.43;;
73550;SDS011;61816;53.582;10.096;2023-07-22T13:59:59;18.35;;;10.02;;
73550;SDS011;61816;53.582;10.096;2023-07-22T14:02:25;19.67;;;10.43;;
73550;SDS011;61816;53.582;10.096;2023-07-22T14:04:50;16.80;;;10.52;;
73550;SDS011;61816;53.582;10.096;2023-07-22T14:07:15;21.42;;;10.25;;
73550;SDS011;61816;53.582;10.096;2023-07-22T14:09:42;16.73;;;9.75;;
73550;SDS011;61816;53.582;10.096;2023-07-22T14:12:08;14.95;;;8.85;;
73550;SDS011;61816;53.582;10.096;2023-07-22T14:14:33;17.38;;;8.90;;
73550;SDS011;61816;53.582;10.096;2023-07-22T14:16:58;19.92;;;9.88;;
73550;SDS011;61816;53.582;10.096;2023-07-22T14:19:24;13.60;;;9.15;;
73550;SDS011;61816;53.582;10.096;2023-07-22T14:21:49;11.82;;;8.23;;
73550;SDS011;61816;53.582;10.096;2023-07-22T14:24:15;19.20;;;10.27;;
73550;SDS011;61816;53.582;10.096;2023-07-22T14:26:40;16.52;;;9.43;;
73550;SDS011;61816;53.582;10.096;2023-07-22T14:29:06;20.25;;;10.40;;
73550;SDS011;61816;53.582;10.096;2023-07-22T14:31:31;15.85;;;9.52;;
73550;SDS011;61816;53.582;10.096;2023-07-22T14:33:57;17.35;;;8.93;;